Accueil
METAR-TAF:

METAR-TAF

Aéroports :

Futuna, France

Aérodrome de Futuna Pointe Vele

latitude: 14-19S, longitude: 178-07W, altitude: 6 m

METAR: absent

Heure: 10:24 (22:24 UTC)

Prévision

Le bulletin a été fait il y a 5 heures et 24 minutes, à 17:00 UTC
Prévision valable du 23 à 18 UTC au 24 à 18 UTC
Vent 12 kt de est
Visibilité 10 km ou plus
Quelques nuages à une hauteur de 2000 ft

TAF: NLWF 231700Z 2318/2418 08012KT 9999 FEW020

Observations et prévisions météorologiques de plus de 4000 aéroports (messages METAR et TAF).

Les stations disponibles sont représentées par des disques jaunes et rouges sur la carte.

Passer la souris dessus pour voir le nom de la station.

Cliquer dessus pour voir les observations et prévisions météorologiques.

Pour changer de carte: cliquez sur les boutons verts avec une croix noire pour zoomer, sur le bouton vert avec un tiret pour effectuer un zoom arrière, ou sur les flèches vertes pour les cartes adjacentes.


METAR-TAF: